sensor_id;sensor_type;location;lat;lon;timestamp;pressure;altitude;pressure_sealevel;temperature;humidity
78073;BME280;67281;48.770;11.440;2024-02-26T00:02:30;95557.59;;;16.76;47.58
78073;BME280;67281;48.770;11.440;2024-02-26T00:05:06;95566.53;;;16.75;47.26
78073;BME280;67281;48.770;11.440;2024-02-26T00:07:39;95559.59;;;16.74;47.26
78073;BME280;67281;48.770;11.440;2024-02-26T00:10:10;95552.69;;;16.73;47.47
78073;BME280;67281;48.770;11.440;2024-02-26T00:12:58;95555.31;;;16.73;47.17
78073;BME280;67281;48.770;11.440;2024-02-26T00:15:29;95547.38;;;16.73;47.83
78073;BME280;67281;48.770;11.440;2024-02-26T00:18:00;95557.16;;;16.72;47.58
78073;BME280;67281;48.770;11.440;2024-02-26T00:20:31;95547.56;;;16.71;47.82
78073;BME280;67281;48.770;11.440;2024-02-26T00:23:05;95549.41;;;16.71;47.39
78073;BME280;67281;48.770;11.440;2024-02-26T00:25:36;95548.78;;;16.69;47.39
78073;BME280;67281;48.770;11.440;2024-02-26T00:28:06;95548.78;;;16.69;47.69
78073;BME280;67281;48.770;11.440;2024-02-26T00:30:37;95554.88;;;16.69;47.88
78073;BME280;67281;48.770;11.440;2024-02-26T00:33:07;95544.47;;;16.68;47.98
78073;BME280;67281;48.770;11.440;2024-02-26T00:35:40;95546.13;;;16.69;47.34
78073;BME280;67281;48.770;11.440;2024-02-26T00:41:05;95552.59;;;16.66;47.96
78073;BME280;67281;48.770;11.440;2024-02-26T00:43:36;95549.13;;;16.66;47.75
78073;BME280;67281;48.770;11.440;2024-02-26T00:46:14;95539.72;;;16.63;47.33
78073;BME280;67281;48.770;11.440;2024-02-26T00:48:45;95545.00;;;16.63;47.72
78073;BME280;67281;48.770;11.440;2024-02-26T00:51:16;95553.75;;;16.64;48.00
78073;BME280;67281;48.770;11.440;2024-02-26T00:54:14;95559.06;;;16.64;47.65
78073;BME280;67281;48.770;11.440;2024-02-26T00:56:45;95554.78;;;16.63;47.51
78073;BME280;67281;48.770;11.440;2024-02-26T00:59:16;95546.19;;;16.61;47.81
78073;BME280;67281;48.770;11.440;2024-02-26T01:01:50;95549.03;;;16.59;47.68
78073;BME280;67281;48.770;11.440;2024-02-26T01:04:22;95551.50;;;16.61;47.69
78073;BME280;67281;48.770;11.440;2024-02-26T01:06:53;95546.38;;;16.59;47.85
78073;BME280;67281;48.770;11.440;2024-02-26T01:09:27;95544.75;;;16.58;47.72
78073;BME280;67281;48.770;11.440;2024-02-26T01:12:01;95542.09;;;16.58;47.98
78073;BME280;67281;48.770;11.440;2024-02-26T01:14:33;95547.59;;;16.57;47.52
78073;BME280;67281;48.770;11.440;2024-02-26T01:17:04;95539.66;;;16.57;48.15
78073;BME280;67281;48.770;11.440;2024-02-26T01:19:38;95534.38;;;16.57;47.58
78073;BME280;67281;48.770;11.440;2024-02-26T01:22:09;95535.38;;;16.56;48.03
78073;BME280;67281;48.770;11.440;2024-02-26T01:24:43;95539.00;;;16.55;47.44
78073;BME280;67281;48.770;11.440;2024-02-26T01:27:20;95534.53;;;16.55;48.11
78073;BME280;67281;48.770;11.440;2024-02-26T01:29:54;95539.00;;;16.55;47.43
78073;BME280;67281;48.770;11.440;2024-02-26T01:32:31;95542.66;;;16.54;48.08
78073;BME280;67281;48.770;11.440;2024-02-26T01:35:09;95543.84;;;16.51;47.59
78073;BME280;67281;48.770;11.440;2024-02-26T01:37:40;95544.69;;;16.52;47.57
78073;BME280;67281;48.770;11.440;2024-02-26T01:41:36;95536.09;;;16.50;47.45
78073;BME280;67281;48.770;11.440;2024-02-26T01:44:12;95545.69;;;16.51;47.45
78073;BME280;67281;48.770;11.440;2024-02-26T01:47:10;95549.31;;;16.50;47.93
78073;BME280;67281;48.770;11.440;2024-02-26T01:50:05;95545.03;;;16.49;48.19
78073;BME280;67281;48.770;11.440;2024-02-26T01:52:59;95545.88;;;16.49;48.03
78073;BME280;67281;48.770;11.440;2024-02-26T01:55:40;95538.13;;;16.48;47.52
78073;BME280;67281;48.770;11.440;2024-02-26T02:01:12;95521.81;;;16.44;48.04
78073;BME280;67281;48.770;11.440;2024-02-26T02:04:33;95524.25;;;16.46;47.77
78073;BME280;67281;48.770;11.440;2024-02-26T02:07:16;95524.44;;;16.44;48.04
78073;BME280;67281;48.770;11.440;2024-02-26T02:09:49;95530.75;;;16.43;47.77
78073;BME280;67281;48.770;11.440;2024-02-26T02:12:26;95531.56;;;16.43;47.59
78073;BME280;67281;48.770;11.440;2024-02-26T02:15:19;95527.09;;;16.44;48.02
78073;BME280;67281;48.770;11.440;2024-02-26T02:21:33;95524.00;;;16.40;47.38
78073;BME280;67281;48.770;11.440;2024-02-26T02:24:13;95525.84;;;16.40;47.75
78073;BME280;67281;48.770;11.440;2024-02-26T02:26:45;95518.09;;;16.38;47.54
78073;BME280;67281;48.770;11.440;2024-02-26T02:29:37;95515.25;;;16.40;47.84
78073;BME280;67281;48.770;11.440;2024-02-26T02:32:08;95518.91;;;16.39;48.18
78073;BME280;67281;48.770;11.440;2024-02-26T02:34:40;95517.06;;;16.39;48.08
78073;BME280;67281;48.770;11.440;2024-02-26T02:37:14;95507.50;;;16.38;47.67
78073;BME280;67281;48.770;11.440;2024-02-26T02:40:23;95492.84;;;16.36;47.78
78073;BME280;67281;48.770;11.440;2024-02-26T02:43:10;95493.66;;;16.36;47.49
78073;BME280;67281;48.770;11.440;2024-02-26T02:50:00;95498.31;;;16.34;48.13
78073;BME280;67281;48.770;11.440;2024-02-26T03:04:18;95518.84;;;16.32;48.12
78073;BME280;67281;48.770;11.440;2024-02-26T03:07:22;95507.66;;;16.30;47.66
78073;BME280;67281;48.770;11.440;2024-02-26T03:10:07;95505.81;;;16.31;48.08
78073;BME280;67281;48.770;11.440;2024-02-26T03:13:34;95503.38;;;16.29;47.83
78073;BME280;67281;48.770;11.440;2024-02-26T03:16:31;95498.25;;;16.28;47.78
78073;BME280;67281;48.770;11.440;2024-02-26T03:22:49;95494.16;;;16.25;47.44
78073;BME280;67281;48.770;11.440;2024-02-26T03:25:37;95498.44;;;16.26;47.68
78073;BME280;67281;48.770;11.440;2024-02-26T03:28:21;95478.31;;;16.25;47.52
78073;BME280;67281;48.770;11.440;2024-02-26T03:30:58;95477.31;;;16.26;47.61
78073;BME280;67281;48.770;11.440;2024-02-26T03:33:43;95481.16;;;16.24;48.17
78073;BME280;67281;48.770;11.440;2024-02-26T03:36:35;95497.81;;;16.24;47.56
78073;BME280;67281;48.770;11.440;2024-02-26T03:45:45;95494.34;;;16.24;47.53
78073;BME280;67281;48.770;11.440;2024-02-26T03:48:22;95503.47;;;16.21;48.12
78073;BME280;67281;48.770;11.440;2024-02-26T03:50:54;95503.47;;;16.21;47.76
78073;BME280;67281;48.770;11.440;2024-02-26T03:54:50;95504.47;;;16.20;47.82
78073;BME280;67281;48.770;11.440;2024-02-26T03:57:23;95494.91;;;16.19;47.85
78073;BME280;67281;48.770;11.440;2024-02-26T04:00:29;95492.09;;;16.21;48.03
78073;BME280;67281;48.770;11.440;2024-02-26T04:03:43;95488.00;;;16.18;48.06
78073;BME280;67281;48.770;11.440;2024-02-26T04:06:21;95492.28;;;16.19;47.45
78073;BME280;67281;48.770;11.440;2024-02-26T04:12:00;95496.28;;;16.15;47.58
78073;BME280;67281;48.770;11.440;2024-02-26T04:14:54;95493.66;;;16.15;48.14
78073;BME280;67281;48.770;11.440;2024-02-26T04:17:34;95493.66;;;16.15;48.19
78073;BME280;67281;48.770;11.440;2024-02-26T04:20:35;95498.94;;;16.15;48.07
78073;BME280;67281;48.770;11.440;2024-02-26T04:23:13;95507.84;;;16.14;48.07
78073;BME280;67281;48.770;11.440;2024-02-26T04:28:59;95516.34;;;16.09;48.23
78073;BME280;67281;48.770;11.440;2024-02-26T04:34:28;95530.38;;;16.10;48.02
78073;BME280;67281;48.770;11.440;2024-02-26T04:37:15;95518.16;;;16.09;47.70
78073;BME280;67281;48.770;11.440;2024-02-26T04:47:13;95525.44;;;16.07;47.47
78073;BME280;67281;48.770;11.440;2024-02-26T04:50:05;95523.19;;;16.04;47.78
78073;BME280;67281;48.770;11.440;2024-02-26T04:52:52;95524.00;;;16.04;48.08
78073;BME280;67281;48.770;11.440;2024-02-26T04:56:04;95517.06;;;16.03;47.35
78073;BME280;67281;48.770;11.440;2024-02-26T05:02:22;95527.81;;;16.02;47.52
78073;BME280;67281;48.770;11.440;2024-02-26T05:04:53;95533.09;;;16.02;47.84
78073;BME280;67281;48.770;11.440;2024-02-26T05:07:53;95530.66;;;16.00;47.74
78073;BME280;67281;48.770;11.440;2024-02-26T05:10:36;95535.47;;;15.97;47.77
78073;BME280;67281;48.770;11.440;2024-02-26T05:20:38;95529.38;;;15.96;47.70
78073;BME280;67281;48.770;11.440;2024-02-26T05:23:15;95518.81;;;15.96;47.41
78073;BME280;67281;48.770;11.440;2024-02-26T05:32:40;95507.78;;;15.93;47.44
78073;BME280;67281;48.770;11.440;2024-02-26T05:35:33;95518.00;;;15.96;47.36
78073;BME280;67281;48.770;11.440;2024-02-26T05:42:00;95516.72;;;15.92;47.33
78073;BME280;67281;48.770;11.440;2024-02-26T05:44:46;95521.19;;;15.91;48.06
78073;BME280;67281;48.770;11.440;2024-02-26T05:47:18;95506.16;;;15.92;47.53
78073;BME280;67281;48.770;11.440;2024-02-26T05:50:39;95517.91;;;15.89;47.50
78073;BME280;67281;48.770;11.440;2024-02-26T05:55:58;95538.22;;;15.89;47.89
78073;BME280;67281;48.770;11.440;2024-02-26T05:59:03;95545.13;;;15.90;47.19
78073;BME280;67281;48.770;11.440;2024-02-26T06:01:33;95551.22;;;15.90;47.55
78073;BME280;67281;48.770;11.440;2024-02-26T06:06:58;95559.53;;;15.87;47.93
78073;BME280;67281;48.770;11.440;2024-02-26T06:09:29;95560.34;;;15.88;47.93
78073;BME280;67281;48.770;11.440;2024-02-26T06:12:17;95561.34;;;15.87;47.35
78073;BME280;67281;48.770;11.440;2024-02-26T06:14:51;95570.09;;;15.87;47.94
78073;BME280;67281;48.770;11.440;2024-02-26T06:17:22;95579.00;;;15.86;47.55
78073;BME280;67281;48.770;11.440;2024-02-26T06:20:11;95574.56;;;15.87;47.26
78073;BME280;67281;48.770;11.440;2024-02-26T06:22:43;95580.00;;;15.85;47.56
78073;BME280;67281;48.770;11.440;2024-02-26T06:25:24;95583.66;;;15.84;47.62
78073;BME280;67281;48.770;11.440;2024-02-26T06:30:47;95582.66;;;15.85;47.56
78073;BME280;67281;48.770;11.440;2024-02-26T06:33:25;95592.41;;;15.85;47.15
78073;BME280;67281;48.770;11.440;2024-02-26T06:36:05;95596.69;;;15.86;47.51
78073;BME280;67281;48.770;11.440;2024-02-26T06:38:44;95600.16;;;15.86;47.50
78073;BME280;67281;48.770;11.440;2024-02-26T06:41:43;95597.69;;;15.85;47.82
78073;BME280;67281;48.770;11.440;2024-02-26T06:44:14;95595.03;;;15.85;47.52
78073;BME280;67281;48.770;11.440;2024-02-26T06:46:50;95599.69;;;15.83;47.84
78073;BME280;67281;48.770;11.440;2024-02-26T06:49:38;95608.44;;;15.83;47.50
78073;BME280;67281;48.770;11.440;2024-02-26T06:52:10;95609.25;;;15.84;47.46
78073;BME280;67281;48.770;11.440;2024-02-26T06:57:50;95619.81;;;15.84;47.78
78073;BME280;67281;48.770;11.440;2024-02-26T07:05:58;95612.88;;;15.83;47.44
78073;BME280;67281;48.770;11.440;2024-02-26T07:07:12;95615.16;;;15.86;47.72
78073;BME280;67281;48.770;11.440;2024-02-26T07:09:45;95620.44;;;15.86;47.09
78073;BME280;67281;48.770;11.440;2024-02-26T07:15:19;95618.63;;;15.86;47.03
78073;BME280;67281;48.770;11.440;2024-02-26T07:18:13;95628.38;;;15.86;46.98
78073;BME280;67281;48.770;11.440;2024-02-26T07:21:15;95630.03;;;15.87;47.16
78073;BME280;67281;48.770;11.440;2024-02-26T07:23:53;95630.03;;;15.87;47.04
78073;BME280;67281;48.770;11.440;2024-02-26T07:27:31;95631.66;;;15.88;47.65
78073;BME280;67281;48.770;11.440;2024-02-26T07:30:12;95632.66;;;15.87;47.41
78073;BME280;67281;48.770;11.440;2024-02-26T07:32:51;95618.44;;;15.88;47.65
78073;BME280;67281;48.770;11.440;2024-02-26T07:35:36;95630.84;;;15.87;47.42
78073;BME280;67281;48.770;11.440;2024-02-26T07:38:42;95633.31;;;15.89;47.30
78073;BME280;67281;48.770;11.440;2024-02-26T07:42:04;95638.22;;;15.92;47.57
78073;BME280;67281;48.770;11.440;2024-02-26T07:45:14;95651.44;;;15.92;46.86
78073;BME280;67281;48.770;11.440;2024-02-26T07:51:51;95659.19;;;15.93;47.24
78073;BME280;67281;48.770;11.440;2024-02-26T07:54:42;95656.53;;;15.93;47.24
78073;BME280;67281;48.770;11.440;2024-02-26T07:57:37;95658.19;;;15.94;47.19
78073;BME280;67281;48.770;11.440;2024-02-26T08:01:14;95653.91;;;15.93;47.16
78073;BME280;67281;48.770;11.440;2024-02-26T08:04:30;95638.88;;;15.94;47.09
78073;BME280;67281;48.770;11.440;2024-02-26T08:07:02;95636.41;;;15.92;46.88
78073;BME280;67281;48.770;11.440;2024-02-26T08:09:37;95639.88;;;15.93;47.00
78073;BME280;67281;48.770;11.440;2024-02-26T08:12:51;95639.03;;;15.92;46.92
78073;BME280;67281;48.770;11.440;2024-02-26T08:15:58;95625.84;;;15.92;47.50
78073;BME280;67281;48.770;11.440;2024-02-26T08:19:07;95617.72;;;15.94;47.44
78073;BME280;67281;48.770;11.440;2024-02-26T08:22:14;95619.56;;;15.93;47.33
78073;BME280;67281;48.770;11.440;2024-02-26T08:25:19;95623.66;;;15.96;47.32
78073;BME280;67281;48.770;11.440;2024-02-26T08:28:06;95630.56;;;15.97;46.85
78073;BME280;67281;48.770;11.440;2024-02-26T08:30:48;95621.66;;;15.98;46.82
78073;BME280;67281;48.770;11.440;2024-02-26T08:33:30;95616.38;;;15.98;47.42
78073;BME280;67281;48.770;11.440;2024-02-26T08:36:06;95611.72;;;16.00;47.35
78073;BME280;67281;48.770;11.440;2024-02-26T08:39:06;95611.09;;;15.98;47.15
78073;BME280;67281;48.770;11.440;2024-02-26T08:41:44;95616.38;;;15.98;47.41
78073;BME280;67281;48.770;11.440;2024-02-26T08:45:12;95612.72;;;15.99;46.85
78073;BME280;67281;48.770;11.440;2024-02-26T08:47:50;95621.47;;;15.99;47.03
78073;BME280;67281;48.770;11.440;2024-02-26T08:50:44;95622.94;;;16.02;47.30
78073;BME280;67281;48.770;11.440;2024-02-26T08:53:16;95618.94;;;16.06;46.99
78073;BME280;67281;48.770;11.440;2024-02-26T08:56:07;95618.56;;;16.09;47.04
78073;BME280;67281;48.770;11.440;2024-02-26T08:58:42;95619.03;;;16.13;47.23
78073;BME280;67281;48.770;11.440;2024-02-26T09:01:31;95607.28;;;16.15;47.15
78073;BME280;67281;48.770;11.440;2024-02-26T09:04:11;95605.25;;;16.17;46.87
78073;BME280;67281;48.770;11.440;2024-02-26T09:06:43;95608.53;;;16.19;46.43
78073;BME280;67281;48.770;11.440;2024-02-26T09:09:16;95630.16;;;16.23;46.45
78073;BME280;67281;48.770;11.440;2024-02-26T09:11:47;95635.25;;;16.24;46.76
78073;BME280;67281;48.770;11.440;2024-02-26T09:14:21;95638.06;;;16.23;46.42
78073;BME280;67281;48.770;11.440;2024-02-26T09:16:54;95639.91;;;16.22;46.52
78073;BME280;67281;48.770;11.440;2024-02-26T09:19:26;95659.03;;;16.24;46.68
78073;BME280;67281;48.770;11.440;2024-02-26T09:21:57;95678.34;;;16.25;46.36
78073;BME280;67281;48.770;11.440;2024-02-26T09:24:27;95682.63;;;16.26;46.64
78073;BME280;67281;48.770;11.440;2024-02-26T09:26:57;95691.56;;;16.25;46.95
78073;BME280;67281;48.770;11.440;2024-02-26T09:29:31;95699.69;;;16.23;46.83
78073;BME280;67281;48.770;11.440;2024-02-26T09:32:07;95701.50;;;16.23;46.34
78073;BME280;67281;48.770;11.440;2024-02-26T09:34:42;95710.25;;;16.23;46.35
78073;BME280;67281;48.770;11.440;2024-02-26T09:37:12;95718.19;;;16.23;47.13
78073;BME280;67281;48.770;11.440;2024-02-26T09:39:48;95706.16;;;16.21;46.94
78073;BME280;67281;48.770;11.440;2024-02-26T09:42:25;95704.50;;;16.20;46.77
78073;BME280;67281;48.770;11.440;2024-02-26T09:45:00;95705.31;;;16.20;46.40
78073;BME280;67281;48.770;11.440;2024-02-26T09:47:31;95695.56;;;16.21;47.07
78073;BME280;67281;48.770;11.440;2024-02-26T09:50:04;95706.97;;;16.21;46.74
78073;BME280;67281;48.770;11.440;2024-02-26T09:52:37;95692.94;;;16.21;46.79
78073;BME280;67281;48.770;11.440;2024-02-26T09:55:09;95690.28;;;16.21;46.50
78073;BME280;67281;48.770;11.440;2024-02-26T09:57:41;95685.66;;;16.23;46.76
78073;BME280;67281;48.770;11.440;2024-02-26T10:00:19;95668.97;;;16.22;46.75
78073;BME280;67281;48.770;11.440;2024-02-26T10:02:51;95678.53;;;16.23;46.85
78073;BME280;67281;48.770;11.440;2024-02-26T10:05:24;95676.53;;;16.25;47.04
78073;BME280;67281;48.770;11.440;2024-02-26T10:07:56;95672.06;;;16.26;47.20
78073;BME280;67281;48.770;11.440;2024-02-26T10:10:29;95671.25;;;16.25;46.45
78073;BME280;67281;48.770;11.440;2024-02-26T10:13:00;95672.06;;;16.26;46.77
78073;BME280;67281;48.770;11.440;2024-02-26T10:15:39;95674.53;;;16.27;46.45
78073;BME280;67281;48.770;11.440;2024-02-26T10:18:13;95673.34;;;16.30;46.89
78073;BME280;67281;48.770;11.440;2024-02-26T10:20:59;95668.88;;;16.30;46.36
78073;BME280;67281;48.770;11.440;2024-02-26T10:23:29;95668.53;;;16.33;46.76
78073;BME280;67281;48.770;11.440;2024-02-26T10:25:59;95674.63;;;16.34;46.34
78073;BME280;67281;48.770;11.440;2024-02-26T10:28:34;95681.53;;;16.35;46.99
78073;BME280;67281;48.770;11.440;2024-02-26T10:31:08;95678.69;;;16.36;46.47
78073;BME280;67281;48.770;11.440;2024-02-26T10:33:39;95667.94;;;16.38;46.20
78073;BME280;67281;48.770;11.440;2024-02-26T10:36:10;95664.47;;;16.37;46.48
78073;BME280;67281;48.770;11.440;2024-02-26T10:38:41;95663.47;;;16.38;46.83
78073;BME280;67281;48.770;11.440;2024-02-26T10:41:13;95659.19;;;16.37;46.46
78073;BME280;67281;48.770;11.440;2024-02-26T10:43:44;95657.19;;;16.39;46.98
78073;BME280;67281;48.770;11.440;2024-02-26T10:46:17;95661.66;;;16.39;46.90
78073;BME280;67281;48.770;11.440;2024-02-26T10:48:50;95656.00;;;16.42;46.76
78073;BME280;67281;48.770;11.440;2024-02-26T10:51:24;95655.63;;;16.45;46.70
78073;BME280;67281;48.770;11.440;2024-02-26T10:53:57;95654.63;;;16.46;46.53
78073;BME280;67281;48.770;11.440;2024-02-26T10:56:29;95664.03;;;16.49;46.15
78073;BME280;67281;48.770;11.440;2024-02-26T10:59:00;95658.75;;;16.49;46.34
78073;BME280;67281;48.770;11.440;2024-02-26T11:01:35;95663.03;;;16.50;46.75
78073;BME280;67281;48.770;11.440;2024-02-26T11:04:06;95665.47;;;16.51;46.29
78073;BME280;67281;48.770;11.440;2024-02-26T11:06:37;95667.94;;;16.53;46.41
78073;BME280;67281;48.770;11.440;2024-02-26T11:09:10;95673.88;;;16.55;46.34
78073;BME280;67281;48.770;11.440;2024-02-26T11:11:44;95674.50;;;16.57;45.79
78073;BME280;67281;48.770;11.440;2024-02-26T11:14:14;95682.72;;;16.62;45.81
78073;BME280;67281;48.770;11.440;2024-02-26T11:16:49;95680.72;;;16.64;46.17
78073;BME280;67281;48.770;11.440;2024-02-26T11:19:20;95684.19;;;16.64;46.39
78073;BME280;67281;48.770;11.440;2024-02-26T11:21:51;95681.38;;;16.66;46.46
78073;BME280;67281;48.770;11.440;2024-02-26T11:24:21;95687.66;;;16.65;45.85
78073;BME280;67281;48.770;11.440;2024-02-26T11:26:54;95690.31;;;16.65;46.44
78073;BME280;67281;48.770;11.440;2024-02-26T11:29:29;95689.31;;;16.66;45.75
78073;BME280;67281;48.770;11.440;2024-02-26T11:32:06;95692.59;;;16.68;45.80
78073;BME280;67281;48.770;11.440;2024-02-26T11:34:36;95697.25;;;16.66;46.29
78073;BME280;67281;48.770;11.440;2024-02-26T11:37:10;95695.75;;;16.63;46.48
78073;BME280;67281;48.770;11.440;2024-02-26T11:39:41;95691.28;;;16.64;46.19
78073;BME280;67281;48.770;11.440;2024-02-26T11:42:14;95696.25;;;16.67;45.89
78073;BME280;67281;48.770;11.440;2024-02-26T11:44:45;95688.94;;;16.69;46.11
78073;BME280;67281;48.770;11.440;2024-02-26T11:47:21;95697.34;;;16.72;46.37
78073;BME280;67281;48.770;11.440;2024-02-26T11:49:51;95691.69;;;16.75;46.34
78073;BME280;67281;48.770;11.440;2024-02-26T11:52:22;95677.25;;;16.78;45.88
78073;BME280;67281;48.770;11.440;2024-02-26T11:54:53;95686.28;;;16.84;45.60
78073;BME280;67281;48.770;11.440;2024-02-26T11:57:27;95689.38;;;16.87;45.88
78073;BME280;67281;48.770;11.440;2024-02-26T12:00:12;95684.53;;;16.91;46.10
78073;BME280;67281;48.770;11.440;2024-02-26T12:02:49;95675.59;;;16.92;45.34
78073;BME280;67281;48.770;11.440;2024-02-26T12:05:25;95676.69;;;16.97;45.46
78073;BME280;67281;48.770;11.440;2024-02-26T12:08:00;95683.25;;;17.01;45.70
78073;BME280;67281;48.770;11.440;2024-02-26T12:10:42;95677.97;;;17.01;45.94
78073;BME280;67281;48.770;11.440;2024-02-26T12:13:29;95678.59;;;17.03;45.65
78073;BME280;67281;48.770;11.440;2024-02-26T12:16:02;95680.78;;;17.00;45.48
78073;BME280;67281;48.770;11.440;2024-02-26T12:18:35;95677.31;;;16.99;45.61
78073;BME280;67281;48.770;11.440;2024-02-26T12:21:08;95676.13;;;17.02;45.67
78073;BME280;67281;48.770;11.440;2024-02-26T12:23:40;95666.19;;;17.04;45.25
78073;BME280;67281;48.770;11.440;2024-02-26T12:29:09;95664.16;;;17.06;45.68
78073;BME280;67281;48.770;11.440;2024-02-26T12:31:47;95661.94;;;17.09;45.58
78073;BME280;67281;48.770;11.440;2024-02-26T12:34:20;95662.94;;;17.08;45.61
78073;BME280;67281;48.770;11.440;2024-02-26T12:36:51;95667.44;;;17.08;45.43
78073;BME280;67281;48.770;11.440;2024-02-26T12:39:21;95680.88;;;17.06;45.71
78073;BME280;67281;48.770;11.440;2024-02-26T12:42:02;95689.41;;;17.08;45.72
78073;BME280;67281;48.770;11.440;2024-02-26T12:45:07;95679.63;;;17.09;46.04
78073;BME280;67281;48.770;11.440;2024-02-26T12:47:48;95677.00;;;17.09;45.73
78073;BME280;67281;48.770;11.440;2024-02-26T12:50:21;95673.34;;;17.10;46.03
78073;BME280;67281;48.770;11.440;2024-02-26T12:52:53;95677.81;;;17.09;45.40
78073;BME280;67281;48.770;11.440;2024-02-26T12:55:30;95685.75;;;17.09;45.99
78073;BME280;67281;48.770;11.440;2024-02-26T12:58:10;95687.78;;;17.07;45.46
78073;BME280;67281;48.770;11.440;2024-02-26T13:00:41;95680.88;;;17.06;46.05
78073;BME280;67281;48.770;11.440;2024-02-26T13:03:22;95666.63;;;17.07;45.52
78073;BME280;67281;48.770;11.440;2024-02-26T13:05:57;95659.50;;;17.08;45.85
78073;BME280;67281;48.770;11.440;2024-02-26T13:08:28;95661.56;;;17.13;45.78
78073;BME280;67281;48.770;11.440;2024-02-26T13:10:59;95665.84;;;17.14;45.54
78073;BME280;67281;48.770;11.440;2024-02-26T13:13:37;95678.91;;;17.15;45.73
78073;BME280;67281;48.770;11.440;2024-02-26T13:16:25;95678.44;;;17.12;45.42
78073;BME280;67281;48.770;11.440;2024-02-26T13:18:57;95683.09;;;17.09;46.38
78073;BME280;67281;48.770;11.440;2024-02-26T13:21:33;95682.50;;;17.07;45.70
78073;BME280;67281;48.770;11.440;2024-02-26T13:24:04;95678.59;;;17.03;46.20
78073;BME280;67281;48.770;11.440;2024-02-26T13:26:36;95692.81;;;17.02;46.59
78073;BME280;67281;48.770;11.440;2024-02-26T13:29:07;95690.19;;;17.02;46.35
78073;BME280;67281;48.770;11.440;2024-02-26T13:31:38;95690.19;;;17.02;46.14
78073;BME280;67281;48.770;11.440;2024-02-26T13:34:23;95687.34;;;17.04;45.84
78073;BME280;67281;48.770;11.440;2024-02-26T13:36:57;95697.94;;;17.04;46.02
78073;BME280;67281;48.770;11.440;2024-02-26T13:39:30;95705.69;;;17.05;46.22
78073;BME280;67281;48.770;11.440;2024-02-26T13:42:06;95702.22;;;17.05;46.45
78073;BME280;67281;48.770;11.440;2024-02-26T13:44:39;95717.28;;;17.04;45.73
78073;BME280;67281;48.770;11.440;2024-02-26T13:47:09;95716.47;;;17.04;45.89
78073;BME280;67281;48.770;11.440;2024-02-26T13:49:43;95721.13;;;17.02;46.50
78073;BME280;67281;48.770;11.440;2024-02-26T13:52:16;95717.00;;;16.99;45.98
78073;BME280;67281;48.770;11.440;2024-02-26T13:54:47;95722.31;;;16.99;46.64
78073;BME280;67281;48.770;11.440;2024-02-26T13:58:17;95720.66;;;16.98;46.15
78073;BME280;67281;48.770;11.440;2024-02-26T14:00:29;95711.72;;;16.99;46.07
78073;BME280;67281;48.770;11.440;2024-02-26T14:03:02;95719.47;;;17.01;46.39
78073;BME280;67281;48.770;11.440;2024-02-26T14:05:33;95715.81;;;17.02;46.71
78073;BME280;67281;48.770;11.440;2024-02-26T14:08:06;95712.34;;;17.01;46.69
78073;BME280;67281;48.770;11.440;2024-02-26T14:10:37;95707.69;;;17.03;46.70
78073;BME280;67281;48.770;11.440;2024-02-26T14:13:07;95709.34;;;17.04;46.67
78073;BME280;67281;48.770;11.440;2024-02-26T14:15:38;95718.91;;;17.05;46.02
78073;BME280;67281;48.770;11.440;2024-02-26T14:18:08;95726.47;;;17.08;46.32
78073;BME280;67281;48.770;11.440;2024-02-26T14:20:39;95727.50;;;17.07;46.30
78073;BME280;67281;48.770;11.440;2024-02-26T14:23:12;95730.97;;;17.08;46.65
78073;BME280;67281;48.770;11.440;2024-02-26T14:25:56;95734.63;;;17.07;46.71
78073;BME280;67281;48.770;11.440;2024-02-26T14:28:36;95740.72;;;17.07;46.04
78073;BME280;67281;48.770;11.440;2024-02-26T14:31:11;95739.91;;;17.07;46.35
78073;BME280;67281;48.770;11.440;2024-02-26T14:33:42;95726.69;;;17.07;46.73
78073;BME280;67281;48.770;11.440;2024-02-26T14:36:12;95723.22;;;17.06;46.86
78073;BME280;67281;48.770;11.440;2024-02-26T14:38:46;95727.88;;;17.04;46.26
78073;BME280;67281;48.770;11.440;2024-02-26T14:41:16;95724.22;;;17.05;46.70
78073;BME280;67281;48.770;11.440;2024-02-26T14:43:47;95732.97;;;17.06;46.28
78073;BME280;67281;48.770;11.440;2024-02-26T14:46:24;95737.44;;;17.05;46.12
78073;BME280;67281;48.770;11.440;2024-02-26T14:49:04;95742.75;;;17.05;46.56
78073;BME280;67281;48.770;11.440;2024-02-26T14:51:46;95748.03;;;17.05;46.09
78073;BME280;67281;48.770;11.440;2024-02-26T14:54:18;95751.50;;;17.06;46.50
78073;BME280;67281;48.770;11.440;2024-02-26T14:56:49;95756.97;;;17.04;46.28
78073;BME280;67281;48.770;11.440;2024-02-26T14:59:19;95757.78;;;17.05;46.55
78073;BME280;67281;48.770;11.440;2024-02-26T15:01:49;95757.97;;;17.03;46.30
78073;BME280;67281;48.770;11.440;2024-02-26T15:04:20;95762.44;;;17.03;46.25
78073;BME280;67281;48.770;11.440;2024-02-26T15:06:50;95758.97;;;17.02;46.86
78073;BME280;67281;48.770;11.440;2024-02-26T15:09:23;95766.91;;;17.02;46.95
78073;BME280;67281;48.770;11.440;2024-02-26T15:11:53;95764.28;;;17.02;46.37
78073;BME280;67281;48.770;11.440;2024-02-26T15:14:36;95766.09;;;17.02;46.95
78073;BME280;67281;48.770;11.440;2024-02-26T15:17:06;95774.03;;;17.02;46.38
78073;BME280;67281;48.770;11.440;2024-02-26T15:19:59;95783.81;;;17.01;46.43
78073;BME280;67281;48.770;11.440;2024-02-26T15:22:30;95782.97;;;17.01;46.65
78073;BME280;67281;48.770;11.440;2024-02-26T15:25:03;95778.69;;;17.00;47.11
78073;BME280;67281;48.770;11.440;2024-02-26T15:27:34;95783.34;;;16.98;46.92
78073;BME280;67281;48.770;11.440;2024-02-26T15:30:13;95783.34;;;16.98;46.77
78073;BME280;67281;48.770;11.440;2024-02-26T15:32:44;95787.81;;;16.97;46.80
78073;BME280;67281;48.770;11.440;2024-02-26T15:35:14;95782.53;;;16.97;46.39